Impacts METAR Board
IDs:

KGYB - Giddings/Lee Cnty, TX, US

Updated at: 1300 UTC 13 Dec 2019
Potential Impact None Slight Moderate High
Time 13/01Z 13/02Z 13/03Z 13/04Z 13/05Z 13/06Z 13/07Z 13/08Z 13/09Z 13/10Z 13/11Z 13/12Z 13/13Z
Temp52 51 49 50 47 46 49 48 50 50 50 50 50
Dewpt48 48 47 49 45 45 47 47 49 49 50 50 50
Altim30.12 30.12 30.10 30.09 30.08 30.07 30.06 30.04 30.01 30.01 29.99 29.98 29.98
VIS10 10 10 10 10 10 10 7 5 5 0.5 0.5 0.5
CIG-- -- -- -- -- 18 20 -- -- 10 1 1 1
CoverCLRCLRCLRCLRCLRBKNBKNSCTCLROVCOVCOVCOVC
FltCatVFRVFRVFRVFRVFRMVFRMVFRVFRMVFRMVFRLIFRLIFRLIFR
WX----------------BRBRFGFGFG
WDir000000000000220
WSpd0 0 0 0 0 0 0 0 0 0 0 0 6
WGst-- -- -- -- -- -- -- -- -- -- -- -- --
Raw hourly METARs
KGYB 130055Z AUTO 00000KT 10SM CLR 11/09 A3012 RMK AO2 T01130089
KGYB 130155Z AUTO 00000KT 10SM CLR 10/09 A3012 RMK AO2 T01040090
KGYB 130255Z AUTO 00000KT 10SM CLR 10/09 A3010 RMK AO2 T00950085
KGYB 130355Z AUTO 00000KT 10SM CLR 10/09 A3009 RMK AO2 T01010092
KGYB 130455Z AUTO 00000KT 10SM CLR 09/07 A3008 RMK AO2 T00850074
KGYB 130555Z AUTO 00000KT 10SM BKN018 08/07 A3007 RMK AO2 T00780072 10146 20076 401770028
KGYB 130655Z AUTO 00000KT 10SM BKN020 09/09 A3006 RMK AO2 T00930086
KGYB 130755Z AUTO 00000KT 7SM SCT016 09/09 A3004 RMK AO2 T00910086
KGYB 130855Z AUTO 00000KT 5SM BR CLR 10/10 A3001 RMK AO2 T01000095
KGYB 130955Z AUTO 00000KT 5SM BR SCT003 OVC010 10/10 A3001 RMK AO2 T01010097
KGYB 131055Z AUTO 00000KT 1/2SM FG OVC001 10/10 A2999 RMK AO2 T01020101
KGYB 131155Z AUTO 00000KT 1/2SM FG OVC001 10/10 A2998 RMK AO2 T01020102 10103 20080
KGYB 131255Z AUTO 22006KT 1/2SM FG OVC001 10/10 A2998 RMK AO2 T01020102



Page loaded:  13:49 UTC  |   05:49 AM Pacific  |   06:49 AM Mountain  |   07:49 AM Central  |   08:49 AM Eastern

 

ADVISORIES

FORECASTS

FORECASTS

OBSERVATIONS

USER TOOLS

ABOUT US